Nacogdoches, TX

4:57 PM CDT on September 17, 2014 (GMT -0500)
South Side | Change Station
CLOSE
Current Station
Personal Weather Station
Location: Nacogdoches, TX
Elevation: 331 ft
Nearby Weather Stations

Elev 331 ft 31.59 °N, 94.66 °W | Updated 2 seconds ago

Clear
Clear
90.9 °F
Feels Like 99 °F
N
7.6
Wind Variable Wind from South
Gusts 9.2 mph

Today
High -- | Low -- °F
--% Chance of Precip.
Yesterday
High -- | Low -- °F
Precip. -- in
7:03 AM 7:21 PM
Waning Crescent, 33% visible
Pressure 29.88 in
Visibility 10.0 miles
Clouds Clear
Heat Index 99 °F
Dew Point 72 °F
Humidity 55%
Rainfall 0.00 in
Snow Depth Not available.
UV 4 out of 12
Pollen 10.10 out of 12
Air Quality Not available.
Flu Activity Not available.
METAR KOCH 172135Z AUTO 18006KT 10SM CLR 32/21 A2988 RMK AO1

More Conditions Fewer Conditions

Pressure 29.88 in
Visibility 10.0 miles
Clouds Clear
Heat Index 99 °F
Dew Point 72 °F
Humidity 55%
Rainfall 0.00 in
Snow Depth Not available.
UV 4 out of 12
Pollen 10.10 out of 12
Air Quality Not available.
Flu Activity Not available.
METAR KOCH 172135Z AUTO 18006KT 10SM CLR 32/21 A2988 RMK AO1

More Conditions Fewer Conditions

Nowcast | as of 4:39 PM CDT on September 17, 2014

Spotty showers and isolated thunderstorms continue over parts of East Texas this afternoon. These storms are nearly stationary and will have little movement as they pop up and dissipate over the next several hours. Rainfall amounts will be low ranging from a trace to a few hundredths of an inch...some isolated higher amounts near a tenth of an inch may be possible.

×

10-Day Weather Forecast

Almanac

Astronomy

Sep. 17, 2014 Rise Set
Actual Time 7:03 AM CDT 7:21 PM CDT
Civil Twilight 6:39 AM CDT 7:46 PM CDT
Nautical Twilight 6:11 AM CDT 8:14 PM CDT
Astronomical Twilight 5:42 AM CDT 8:43 PM CDT
Moon 1:20 AM CDT 3:17 PM CDT
Length of Visible Light 13h 06m
Length of Day
12h 17m
Tomorrow will be 1m 54s shorter.
Waning Crescent, 33% of the Moon is Illuminated
Today
Waning Crescent
Sep 24
New
Oct 1
First Quarter
Oct 8
Full
Oct 15
Last Quarter

Today's Extremes

State Highs State Lows

Community

WunderPhotos

Upload Photos

1,754,171 photos uploaded!

Nearby

Snow Depth

Station Depth Elevation
No new snow has been reported.

Earthquake Activity

City Distance Mag. Time & Date
No recent earthquake activity has been reported nearby.
Minimum magnitude displayed is 2.5.

Coastal Water Temperatures

Place Temperature
No Stations Reporting

Nearby Weather Stations